Time;durP1;ratioP1;P1;durP2;ratioP2;P2;SDS_P1;SDS_P2;PMS_P1;PMS_P2;Temp;Humidity;BMP_temperature;BMP_pressure;BME280_temperature;BME280_humidity;BME280_pressure;Samples;Min_cycle;Max_cycle;Signal;HPM_P1;HPM_P2
2022/10/22 00:00:00;;;;;;;22.63;19.88;;;;;;;9.53;61.00;95756.53;5084818;28;20255;-65
2022/10/22 00:02:26;;;;;;;25.40;19.67;;;;;;;9.44;61.37;95773.06;5090058;28;20226;-64
2022/10/22 00:04:53;;;;;;;26.08;20.30;;;;;;;9.36;61.46;95775.47;5084181;28;20223;-64
2022/10/22 00:07:19;;;;;;;23.38;20.70;;;;;;;9.17;61.98;95765.66;5085747;28;20192;-64
2022/10/22 00:09:46;;;;;;;25.27;21.58;;;;;;;9.13;62.02;95757.16;5082829;28;20196;-64
2022/10/22 00:12:14;;;;;;;26.60;20.65;;;;;;;9.11;62.31;95766.94;5085217;28;20207;-64
2022/10/22 00:14:40;;;;;;;28.05;20.35;;;;;;;9.23;61.83;95760.72;5086673;28;20204;-64
2022/10/22 00:17:05;;;;;;;22.47;19.53;;;;;;;9.36;61.25;95764.97;5081832;28;20188;-64
2022/10/22 00:19:31;;;;;;;24.35;20.55;;;;;;;9.17;61.84;95765.66;5082456;28;20210;-64
2022/10/22 00:21:57;;;;;;;22.05;19.70;;;;;;;9.12;61.83;95768.63;5081276;28;20180;-64
2022/10/22 00:24:23;;;;;;;25.23;19.90;;;;;;;9.14;61.73;95774.59;5084432;28;20189;-64
2022/10/22 00:26:48;;;;;;;23.08;19.15;;;;;;;9.13;61.91;95765.03;5084634;28;20218;-64
2022/10/22 00:29:14;;;;;;;22.75;19.25;;;;;;;9.11;61.78;95761.69;5082436;28;20267;-64
2022/10/22 00:31:39;;;;;;;23.35;19.48;;;;;;;9.04;62.08;95774.50;5085851;28;20215;-64
2022/10/22 00:34:05;;;;;;;30.38;20.27;;;;;;;9.03;62.40;95757.09;5088219;28;20192;-64
2022/10/22 00:36:30;;;;;;;22.38;18.95;;;;;;;8.92;62.26;95744.00;5086489;28;20224;-64
2022/10/22 00:38:56;;;;;;;23.38;20.40;;;;;;;8.81;62.51;95747.47;5079120;28;20307;-64
2022/10/22 00:41:21;;;;;;;26.17;19.45;;;;;;;8.85;62.67;95750.72;5088687;28;20192;-64
2022/10/22 00:43:59;;;;;;;25.25;20.38;;;;;;;8.89;62.85;95759.16;5075934;28;20195;-64
2022/10/22 00:46:24;;;;;;;24.98;19.65;;;;;;;9.00;62.33;95751.25;5080723;28;20274;-64
2022/10/22 00:48:51;;;;;;;25.77;20.20;;;;;;;8.88;62.52;95752.25;5085647;28;20264;-64
2022/10/22 00:51:19;;;;;;;22.15;19.80;;;;;;;8.88;62.79;95760.94;5089060;28;20204;-66
2022/10/22 00:53:52;;;;;;;24.67;19.33;;;;;;;8.82;62.60;95753.56;5086279;28;20188;-64
2022/10/22 00:56:19;;;;;;;24.08;19.85;;;;;;;8.90;62.75;95763.44;5088613;28;20191;-64
2022/10/22 00:58:50;;;;;;;24.92;20.05;;;;;;;8.98;61.75;95759.25;5098670;28;20177;-64
2022/10/22 01:01:20;;;;;;;21.90;19.20;;;;;;;8.52;63.53;95754.22;5079854;28;20176;-64
2022/10/22 01:03:47;;;;;;;22.20;18.88;;;;;;;8.55;63.61;95741.72;5086573;28;20176;-64
2022/10/22 01:06:22;;;;;;;21.75;19.45;;;;;;;8.67;62.86;95742.53;5085549;28;20185;-64
2022/10/22 01:09:07;;;;;;;20.80;18.58;;;;;;;8.71;62.80;95733.44;5078969;28;20191;-65
2022/10/22 01:11:54;;;;;;;22.42;19.20;;;;;;;8.72;62.76;95727.25;5080616;28;20253;-65
2022/10/22 01:14:42;;;;;;;24.15;19.70;;;;;;;8.58;62.96;95711.78;5090571;28;20190;-65
2022/10/22 01:17:46;;;;;;;20.45;18.35;;;;;;;8.79;62.13;95717.94;5103091;28;20204;-65
2022/10/22 01:20:30;;;;;;;21.48;18.83;;;;;;;8.68;62.34;95715.34;4992871;28;20198;-64
2022/10/22 01:23:17;;;;;;;21.33;18.27;;;;;;;8.68;62.58;95725.00;5007700;28;20198;-64
2022/10/22 01:25:49;;;;;;;22.70;18.15;;;;;;;8.69;62.35;95711.78;4988929;28;20258;-64
2022/10/22 01:28:48;;;;;;;20.75;18.65;;;;;;;8.63;62.69;95717.47;5005944;28;20269;-64
2022/10/22 01:31:17;;;;;;;22.58;20.13;;;;;;;8.61;62.51;95716.81;4991739;28;20301;-65
2022/10/22 01:33:44;;;;;;;21.48;18.92;;;;;;;8.45;63.40;95704.09;4987249;28;20226;-64
2022/10/22 01:36:11;;;;;;;21.95;18.95;;;;;;;8.51;63.06;95694.91;4993050;28;20226;-65
2022/10/22 01:38:39;;;;;;;21.23;18.90;;;;;;;8.59;62.73;95695.94;4991168;28;20248;-64
2022/10/22 01:41:06;;;;;;;24.98;19.60;;;;;;;8.60;62.60;95688.91;4989669;28;20191;-64
2022/10/22 01:43:32;;;;;;;22.23;19.33;;;;;;;8.63;62.69;95693.06;5004543;28;20199;-64
2022/10/22 01:46:00;;;;;;;20.33;17.90;;;;;;;8.64;62.52;95685.09;4986464;28;20684;-64
2022/10/22 01:48:32;;;;;;;21.60;18.77;;;;;;;8.48;63.37;95689.91;4989605;28;20262;-64
2022/10/22 01:51:20;;;;;;;21.58;17.95;;;;;;;8.29;63.56;95675.59;5003956;28;20239;-64
2022/10/22 01:54:26;;;;;;;19.20;17.30;;;;;;;8.31;62.98;95685.94;4950279;29;20293;-64
2022/10/22 01:57:07;;;;;;;19.93;16.17;;;;;;;8.44;63.08;95701.56;4938763;28;20234;-64
2022/10/22 01:59:38;;;;;;;21.02;18.80;;;;;;;8.27;63.21;95693.22;4965325;28;20204;-64
2022/10/22 02:02:24;;;;;;;18.95;17.08;;;;;;;8.25;63.67;95704.78;4987365;28;20192;-64
2022/10/22 02:05:13;;;;;;;18.77;16.53;;;;;;;8.28;63.32;95694.88;4973007;28;20265;-64
2022/10/22 02:07:45;;;;;;;20.53;17.77;;;;;;;8.06;64.11;95697.53;4956381;28;20240;-64
2022/10/22 02:10:12;;;;;;;22.25;18.63;;;;;;;8.11;64.55;95700.63;4941573;28;20196;-64
2022/10/22 02:12:39;;;;;;;18.63;16.73;;;;;;;8.08;64.69;95708.72;4953360;28;20235;-64
2022/10/22 02:15:07;;;;;;;18.90;16.90;;;;;;;8.28;63.52;95699.28;4934597;28;20315;-64
2022/10/22 02:17:36;;;;;;;19.17;17.00;;;;;;;8.17;63.60;95693.09;4952977;28;20263;-64
2022/10/22 02:20:18;;;;;;;19.90;17.90;;;;;;;8.19;63.89;95700.84;4955131;28;20292;-64
2022/10/22 02:22:43;;;;;;;22.83;18.67;;;;;;;8.18;64.34;95699.19;4955086;28;20284;-64
2022/10/22 02:25:10;;;;;;;23.97;18.33;;;;;;;8.29;63.75;95695.75;4944284;28;20327;-64
2022/10/22 02:27:50;;;;;;;20.67;17.53;;;;;;;8.22;63.63;95679.66;4952584;28;20307;-64
2022/10/22 02:30:19;;;;;;;22.75;19.10;;;;;;;8.18;63.46;95679.06;4949244;28;20238;-64
2022/10/22 02:33:07;;;;;;;20.67;18.48;;;;;;;8.21;63.63;95679.78;4989333;28;20237;-64
2022/10/22 02:35:34;;;;;;;20.83;18.60;;;;;;;8.13;64.15;95694.31;5026069;28;20193;-64
2022/10/22 02:38:01;;;;;;;22.00;18.40;;;;;;;8.01;64.71;95697.06;5038534;28;20269;-64
2022/10/22 02:40:29;;;;;;;19.87;17.77;;;;;;;7.99;64.86;95698.94;5029780;28;20189;-65
2022/10/22 02:42:54;;;;;;;21.30;18.40;;;;;;;8.00;64.79;95700.63;5025533;28;20289;-65
2022/10/22 02:45:20;;;;;;;18.77;16.80;;;;;;;8.00;65.05;95708.50;5071921;28;20268;-65
2022/10/22 02:47:46;;;;;;;19.90;17.80;;;;;;;7.97;64.53;95708.72;5067518;28;20291;-63
2022/10/22 02:50:12;;;;;;;19.20;17.10;;;;;;;8.08;63.99;95716.59;5079410;28;20267;-63
2022/10/22 02:52:37;;;;;;;19.15;17.15;;;;;;;8.18;63.52;95717.53;5086015;28;20260;-63
2022/10/22 02:55:04;;;;;;;18.10;16.20;;;;;;;8.23;62.81;95712.75;5076299;28;20200;-63
2022/10/22 02:57:30;;;;;;;19.20;17.30;;;;;;;8.13;63.56;95714.44;5083419;28;20195;-63
2022/10/22 02:59:55;;;;;;;17.97;16.07;;;;;;;8.06;63.35;95703.59;5086175;28;20184;-63
2022/10/22 03:02:20;;;;;;;18.17;16.37;;;;;;;7.89;64.08;95710.16;5086968;28;20287;-63
2022/10/22 03:04:46;;;;;;;18.20;16.40;;;;;;;7.95;64.06;95704.44;5088025;28;20184;-64
2022/10/22 03:07:11;;;;;;;17.13;15.47;;;;;;;7.94;64.25;95707.19;5085932;28;20187;-65
2022/10/22 03:09:37;;;;;;;18.67;16.38;;;;;;;8.00;64.05;95705.88;5087082;28;20188;-65
2022/10/22 03:12:02;;;;;;;17.47;15.67;;;;;;;7.92;64.23;95709.09;5087267;28;20235;-65
2022/10/22 03:14:28;;;;;;;17.90;16.00;;;;;;;7.98;64.24;95713.00;5087399;28;20195;-65
2022/10/22 03:16:53;;;;;;;17.73;15.83;;;;;;;7.99;64.00;95701.56;5087539;28;20199;-65
2022/10/22 03:19:18;;;;;;;18.43;16.43;;;;;;;7.85;64.57;95695.63;5091249;28;20187;-65
2022/10/22 03:22:01;;;;;;;18.20;16.40;;;;;;;7.89;64.48;95704.91;5083876;28;20184;-65
2022/10/22 03:24:49;;;;;;;21.00;16.88;;;;;;;7.99;64.06;95701.56;5087030;28;20214;-65
2022/10/22 03:27:17;;;;;;;20.07;17.93;;;;;;;7.91;64.25;95694.31;5082353;28;20283;-65
2022/10/22 03:29:43;;;;;;;26.45;17.95;;;;;;;7.86;64.57;95696.47;5084821;28;20197;-64
2022/10/22 03:32:08;;;;;;;19.50;17.17;;;;;;;7.82;64.66;95687.16;5090394;28;20208;-65
2022/10/22 03:34:34;;;;;;;19.40;17.40;;;;;;;7.76;65.32;95691.09;5086215;28;20250;-65
2022/10/22 03:37:00;;;;;;;22.07;18.13;;;;;;;7.54;65.91;95684.06;5083673;28;20229;-65
2022/10/22 03:39:28;;;;;;;19.07;17.03;;;;;;;7.81;64.68;95686.34;5082014;28;20207;-65
2022/10/22 03:41:54;;;;;;;23.02;18.10;;;;;;;7.86;64.71;95688.63;5086160;28;20187;-65
2022/10/22 03:44:21;;;;;;;24.30;19.65;;;;;;;7.72;65.38;95681.78;5080694;28;20213;-65
2022/10/22 03:46:47;;;;;;;23.03;19.27;;;;;;;7.77;65.41;95686.69;5085185;28;20198;-65
2022/10/22 03:49:12;;;;;;;20.27;18.20;;;;;;;7.69;65.63;95682.03;5090381;28;20188;-64
2022/10/22 03:51:38;;;;;;;22.07;18.30;;;;;;;7.81;65.50;95681.09;5085948;28;20220;-65
2022/10/22 03:54:03;;;;;;;22.57;17.53;;;;;;;7.82;64.94;95685.38;5079639;28;20208;-65
2022/10/22 03:56:29;;;;;;;20.23;18.08;;;;;;;7.79;65.43;95697.88;5083352;28;20196;-65
2022/10/22 03:58:56;;;;;;;20.63;18.43;;;;;;;7.57;65.79;95683.81;5083504;28;20211;-65
2022/10/22 04:01:23;;;;;;;21.23;17.67;;;;;;;7.76;65.69;95701.56;5083647;28;20192;-63
2022/10/22 04:03:48;;;;;;;19.87;17.70;;;;;;;7.86;64.66;95699.91;5091491;28;20191;-63
2022/10/22 04:06:14;;;;;;;20.40;18.23;;;;;;;7.68;65.16;95693.47;5085003;28;20196;-64
2022/10/22 04:08:41;;;;;;;18.67;16.77;;;;;;;7.70;65.47;95688.97;5081619;28;20223;-65
2022/10/22 04:11:07;;;;;;;24.27;18.37;;;;;;;7.72;65.52;95687.03;5083998;28;20208;-65
2022/10/22 04:13:32;;;;;;;21.73;19.00;;;;;;;7.71;65.37;95674.91;5081034;28;20183;-65
2022/10/22 04:16:16;;;;;;;20.57;17.77;;;;;;;7.85;65.03;95682.53;5083654;28;20208;-64
2022/10/22 04:18:43;;;;;;;20.48;17.58;;;;;;;7.89;64.89;95685.75;5100131;28;20255;-63
2022/10/22 04:21:11;;;;;;;20.57;17.77;;;;;;;7.98;64.67;95681.56;5085300;28;20245;-63
2022/10/22 04:23:37;;;;;;;22.83;18.20;;;;;;;7.99;64.85;95672.75;5085671;28;20188;-65
2022/10/22 04:26:06;;;;;;;20.55;18.55;;;;;;;8.07;64.57;95680.84;5082481;28;20195;-65
2022/10/22 04:28:33;;;;;;;20.13;18.07;;;;;;;7.89;65.20;95678.72;5092836;28;20211;-65
2022/10/22 04:30:58;;;;;;;21.40;19.10;;;;;;;7.72;66.37;95668.72;5082034;28;20229;-65
2022/10/22 04:33:24;;;;;;;20.83;18.63;;;;;;;7.87;65.88;95679.78;5081749;28;20189;-65
2022/10/22 04:35:49;;;;;;;20.90;18.67;;;;;;;7.94;65.46;95679.22;5082028;28;20199;-65
2022/10/22 04:38:15;;;;;;;21.65;17.92;;;;;;;7.85;65.65;95676.47;5084136;28;20184;-64
2022/10/22 04:40:41;;;;;;;20.77;18.67;;;;;;;7.51;67.28;95673.81;5087886;28;20207;-65
2022/10/22 04:43:06;;;;;;;19.63;17.63;;;;;;;7.81;66.44;95678.50;5088618;28;20196;-65
2022/10/22 04:45:33;;;;;;;19.70;17.60;;;;;;;7.82;66.23;95676.69;5089190;28;20196;-65
2022/10/22 04:47:58;;;;;;;20.40;18.02;;;;;;;7.90;65.99;95677.75;5080572;28;20192;-65
2022/10/22 04:50:24;;;;;;;19.50;17.33;;;;;;;8.01;65.39;95676.94;5082215;28;20200;-65
2022/10/22 04:52:49;;;;;;;21.93;17.90;;;;;;;7.92;65.51;95672.41;5086620;28;20184;-66
2022/10/22 04:55:14;;;;;;;17.77;15.93;;;;;;;7.94;65.40;95687.06;5090116;28;20190;-65
2022/10/22 04:57:40;;;;;;;17.67;15.32;;;;;;;8.06;64.70;95695.75;5080063;28;20207;-65
2022/10/22 05:00:06;;;;;;;14.90;13.27;;;;;;;8.06;64.30;95687.88;5081990;28;20267;-63
2022/10/22 05:02:31;;;;;;;14.13;12.80;;;;;;;8.13;63.87;95698.72;5078911;28;20196;-65
2022/10/22 05:04:57;;;;;;;15.13;13.60;;;;;;;8.18;63.78;95704.44;5082940;28;20191;-65
2022/10/22 05:07:22;;;;;;;14.10;12.63;;;;;;;8.09;63.65;95700.72;5078639;28;20187;-65
2022/10/22 05:09:48;;;;;;;14.43;13.00;;;;;;;8.15;63.63;95700.28;5087153;28;20188;-65
2022/10/22 05:12:14;;;;;;;13.97;12.57;;;;;;;8.17;63.53;95702.75;5097294;28;20196;-65
2022/10/22 05:14:39;;;;;;;15.07;11.68;;;;;;;8.00;64.04;95718.97;5078931;28;20207;-65
2022/10/22 05:17:05;;;;;;;16.00;12.20;;;;;;;7.76;63.92;95717.28;5083821;28;20212;-65
2022/10/22 05:19:31;;;;;;;14.93;13.43;;;;;;;7.83;64.48;95715.00;5086493;28;20184;-65
2022/10/22 05:21:59;;;;;;;14.05;12.63;;;;;;;7.85;64.75;95708.72;5066488;28;20182;-65
2022/10/22 05:24:26;;;;;;;17.40;13.43;;;;;;;7.82;64.59;95698.47;5083155;28;20204;-65
2022/10/22 05:26:54;;;;;;;23.43;16.57;;;;;;;7.94;64.54;95702.78;5086482;28;20192;-65
2022/10/22 05:29:19;;;;;;;17.33;15.47;;;;;;;8.00;64.50;95719.78;5084536;28;20188;-65
2022/10/22 05:31:45;;;;;;;19.87;15.73;;;;;;;8.01;64.45;95712.75;5085224;28;20202;-65
2022/10/22 05:34:11;;;;;;;17.57;15.17;;;;;;;8.09;64.13;95716.44;5087783;28;20191;-65
2022/10/22 05:36:36;;;;;;;20.48;15.88;;;;;;;8.03;63.57;95714.31;5086234;28;20232;-65
2022/10/22 05:39:03;;;;;;;19.52;16.17;;;;;;;8.05;64.02;95722.91;5074778;28;20192;-65
2022/10/22 05:41:29;;;;;;;19.88;16.73;;;;;;;7.94;64.43;95728.97;5063627;28;20189;-65
2022/10/22 05:43:58;;;;;;;17.77;15.67;;;;;;;8.09;64.12;95726.09;5083872;28;20271;-64
2022/10/22 05:46:26;;;;;;;18.30;14.63;;;;;;;8.04;64.14;95717.75;5083482;28;20196;-64
2022/10/22 05:48:57;;;;;;;17.10;14.75;;;;;;;8.06;63.91;95721.94;5086442;28;20207;-65
2022/10/22 05:51:24;;;;;;;18.23;14.23;;;;;;;8.05;63.65;95717.66;5083672;28;20243;-65
2022/10/22 05:53:55;;;;;;;19.08;16.58;;;;;;;8.21;63.40;95719.09;5082408;28;20195;-65
2022/10/22 05:56:21;;;;;;;18.77;16.77;;;;;;;8.36;62.90;95712.63;5089355;28;20184;-65
2022/10/22 05:58:47;;;;;;;19.77;16.17;;;;;;;8.50;62.57;95719.41;5085181;28;20200;-65
2022/10/22 06:01:14;;;;;;;20.77;16.60;;;;;;;8.51;62.20;95718.47;5086305;28;20184;-65
2022/10/22 06:03:40;;;;;;;20.23;17.13;;;;;;;8.36;62.70;95718.69;5080243;28;20527;-63
2022/10/22 06:06:14;;;;;;;19.65;15.45;;;;;;;8.27;63.90;95729.91;5088216;28;20279;-63
2022/10/22 06:08:40;;;;;;;19.10;15.02;;;;;;;8.12;64.21;95716.19;5084730;28;20195;-63
2022/10/22 06:11:06;;;;;;;19.10;15.93;;;;;;;8.17;63.77;95719.31;5081210;28;20200;-63
2022/10/22 06:13:31;;;;;;;19.60;16.88;;;;;;;8.38;63.15;95727.28;5078236;28;20188;-63
2022/10/22 06:15:57;;;;;;;19.17;17.20;;;;;;;8.57;63.04;95728.47;5080065;28;20566;-63
2022/10/22 06:18:22;;;;;;;21.70;19.40;;;;;;;8.56;62.95;95718.94;5082341;28;20267;-63
2022/10/22 06:20:48;;;;;;;22.00;18.90;;;;;;;8.55;63.16;95723.38;5088582;28;20193;-63
2022/10/22 06:23:14;;;;;;;20.42;17.98;;;;;;;8.72;63.40;95731.66;5087830;28;20196;-63
2022/10/22 06:25:41;;;;;;;29.07;22.33;;;;;;;8.87;63.00;95730.41;5079872;28;20197;-63
2022/10/22 06:28:06;;;;;;;29.08;24.10;;;;;;;8.99;62.79;95726.00;5081366;28;20180;-64
2022/10/22 06:30:32;;;;;;;27.40;24.23;;;;;;;9.03;62.84;95730.00;5081745;28;20195;-64
2022/10/22 06:32:58;;;;;;;27.77;23.17;;;;;;;9.04;62.84;95726.44;5089246;28;20192;-64
2022/10/22 06:38:14;;;;;;;29.67;25.40;;;;;;;9.10;62.88;95739.06;5086580;28;20316;-64
2022/10/22 06:40:42;;;;;;;27.65;24.45;;;;;;;9.26;62.50;95746.50;5086763;28;20243;-64
2022/10/22 06:43:08;;;;;;;27.77;24.77;;;;;;;9.32;62.47;95745.16;5082152;28;20212;-64
2022/10/22 06:45:34;;;;;;;29.88;23.90;;;;;;;9.25;62.55;95737.00;5086048;28;20267;-64
2022/10/22 06:47:59;;;;;;;26.52;23.83;;;;;;;9.47;62.33;95736.03;5079922;28;20196;-64
2022/10/22 06:50:25;;;;;;;27.03;24.13;;;;;;;9.49;62.22;95723.63;5084829;28;20193;-68
2022/10/22 06:52:50;;;;;;;33.47;25.30;;;;;;;9.64;62.03;95730.19;5083441;28;20187;-65
2022/10/22 06:55:16;;;;;;;31.52;25.30;;;;;;;9.55;62.35;95722.28;5088273;28;20180;-64
2022/10/22 06:57:41;;;;;;;28.17;24.95;;;;;;;9.56;62.36;95724.75;5085881;28;20185;-66
2022/10/22 07:00:07;;;;;;;27.55;24.10;;;;;;;9.50;62.51;95723.47;5086613;28;20188;-63
2022/10/22 07:02:33;;;;;;;28.17;24.15;;;;;;;9.74;61.89;95738.16;5087984;28;20215;-66
2022/10/22 07:04:58;;;;;;;29.58;24.65;;;;;;;9.92;61.43;95733.97;5078887;28;20180;-65
2022/10/22 07:07:24;;;;;;;27.38;24.50;;;;;;;9.99;61.41;95736.06;5081162;28;20168;-65
2022/10/22 07:09:49;;;;;;;30.83;23.92;;;;;;;10.06;61.12;95737.22;5086984;28;20208;-65
2022/10/22 07:12:15;;;;;;;26.73;23.30;;;;;;;10.17;60.86;95731.88;5086271;28;20200;-65
2022/10/22 07:14:41;;;;;;;27.85;24.27;;;;;;;10.22;60.54;95731.50;5089438;28;20183;-65
2022/10/22 07:17:06;;;;;;;28.42;23.60;;;;;;;10.17;60.66;95724.00;5090788;28;20195;-65
2022/10/22 07:19:32;;;;;;;30.35;24.25;;;;;;;9.98;61.25;95719.47;5081993;28;20181;-65
2022/10/22 07:21:58;;;;;;;26.75;24.00;;;;;;;10.19;61.03;95721.25;5085106;28;20225;-65
2022/10/22 07:24:23;;;;;;;25.05;22.48;;;;;;;10.42;60.56;95727.16;5080945;28;20185;-64
2022/10/22 07:26:49;;;;;;;27.08;23.08;;;;;;;10.47;60.14;95724.97;5087344;28;20217;-65
2022/10/22 07:29:14;;;;;;;27.40;24.50;;;;;;;10.62;59.80;95731.50;5085312;28;20180;-65
2022/10/22 07:31:41;;;;;;;26.75;23.88;;;;;;;10.68;59.63;95725.72;5091259;28;20211;-64
2022/10/22 07:34:06;;;;;;;27.00;24.00;;;;;;;10.74;59.69;95729.59;5089965;28;20188;-64
2022/10/22 07:36:32;;;;;;;24.90;22.40;;;;;;;10.85;58.82;95718.13;5085348;28;20233;-65
2022/10/22 07:38:58;;;;;;;24.52;22.02;;;;;;;10.96;58.55;95723.25;5091779;28;20220;-64
2022/10/22 07:41:25;;;;;;;26.25;22.20;;;;;;;11.01;58.19;95724.53;5084534;28;20177;-64
2022/10/22 07:43:51;;;;;;;25.58;22.20;;;;;;;11.04;58.50;95718.16;5090757;28;20191;-64
2022/10/22 07:46:16;;;;;;;23.55;21.05;;;;;;;10.99;58.51;95699.31;5074268;28;20185;-64
2022/10/22 07:48:42;;;;;;;25.08;22.25;;;;;;;11.08;57.81;95700.28;5072865;28;20195;-64
2022/10/22 07:51:07;;;;;;;24.15;21.85;;;;;;;11.17;57.06;95697.69;5086794;28;20208;-64
2022/10/22 07:53:33;;;;;;;24.00;21.40;;;;;;;11.23;57.46;95696.28;5085367;28;20180;-64
2022/10/22 07:55:58;;;;;;;24.63;21.85;;;;;;;11.39;56.67;95693.91;5084528;28;20215;-64
2022/10/22 07:58:24;;;;;;;23.98;21.48;;;;;;;11.34;56.62;95682.97;5083573;28;20216;-64
2022/10/22 08:00:50;;;;;;;23.95;19.58;;;;;;;11.48;56.38;95700.97;5087770;28;20192;-64
2022/10/22 08:03:16;;;;;;;24.38;21.83;;;;;;;11.43;56.84;95697.91;5092084;28;20237;-64
2022/10/22 08:05:43;;;;;;;23.83;21.30;;;;;;;11.63;56.19;95690.84;5091061;28;20188;-64
2022/10/22 08:08:09;;;;;;;27.48;21.73;;;;;;;11.58;56.12;95692.22;5086707;28;20188;-64
2022/10/22 08:10:35;;;;;;;23.83;21.33;;;;;;;11.69;55.75;95692.88;5083050;28;20201;-64
2022/10/22 08:13:00;;;;;;;22.45;20.05;;;;;;;11.65;55.91;95685.41;5085124;28;20214;-64
2022/10/22 08:15:26;;;;;;;25.58;22.75;;;;;;;11.86;55.73;95687.88;5085244;28;20194;-64
2022/10/22 08:17:52;;;;;;;23.98;20.70;;;;;;;11.91;55.50;95681.22;5090082;28;20218;-64
2022/10/22 08:20:18;;;;;;;25.33;20.67;;;;;;;12.08;55.02;95698.09;5081302;28;20180;-64
2022/10/22 08:22:43;;;;;;;22.05;19.67;;;;;;;12.11;54.52;95695.16;5084603;28;20173;-64
2022/10/22 08:25:10;;;;;;;22.98;20.35;;;;;;;12.11;54.13;95675.88;5088909;28;20398;-64
2022/10/22 08:27:35;;;;;;;24.80;19.00;;;;;;;12.14;54.03;95675.59;5082761;28;20275;-64
2022/10/22 08:30:01;;;;;;;23.55;21.15;;;;;;;12.22;53.81;95667.78;5082583;28;20227;-64
2022/10/22 08:32:27;;;;;;;21.73;19.40;;;;;;;12.31;53.67;95672.16;5084299;28;20208;-64
2022/10/22 08:34:52;;;;;;;23.98;21.17;;;;;;;12.32;53.63;95679.13;5087592;28;20242;-64
2022/10/22 08:37:18;;;;;;;23.77;21.17;;;;;;;12.44;53.24;95669.19;5087350;28;20304;-64
2022/10/22 08:39:44;;;;;;;26.13;22.80;;;;;;;12.69;53.02;95667.66;5087425;28;20181;-64
2022/10/22 08:42:18;;;;;;;25.23;22.33;;;;;;;12.51;52.94;95672.06;5085338;28;20176;-64
2022/10/22 08:44:59;;;;;;;23.67;21.27;;;;;;;12.54;52.91;95671.78;5087866;28;20213;-64
2022/10/22 08:47:53;;;;;;;22.80;20.42;;;;;;;12.77;52.63;95682.75;5087470;28;20184;-64
2022/10/22 08:50:29;;;;;;;21.38;19.17;;;;;;;12.85;52.28;95668.81;5080953;28;20184;-64
2022/10/22 08:53:00;;;;;;;21.30;19.20;;;;;;;13.02;52.05;95679.38;5080222;28;20188;-64
2022/10/22 08:55:27;;;;;;;22.38;20.10;;;;;;;13.14;51.83;95666.78;5085964;28;20192;-64
2022/10/22 08:58:02;;;;;;;30.25;24.00;;;;;;;13.35;51.32;95671.78;5080319;28;20188;-64
2022/10/22 09:00:41;;;;;;;25.25;22.73;;;;;;;13.50;51.39;95661.50;5088122;28;20229;-64
2022/10/22 09:03:28;;;;;;;22.35;19.55;;;;;;;13.55;50.68;95668.94;5082680;28;20188;-64
2022/10/22 09:06:08;;;;;;;20.92;18.60;;;;;;;13.50;50.08;95680.00;5079744;28;20187;-64
2022/10/22 09:08:36;;;;;;;23.75;19.98;;;;;;;13.39;50.46;95667.84;5088497;28;20203;-64
2022/10/22 09:11:26;;;;;;;22.63;20.23;;;;;;;13.58;50.00;95669.47;5080173;28;20207;-64
2022/10/22 09:13:54;;;;;;;25.98;19.98;;;;;;;13.66;50.00;95664.25;5081182;28;20195;-64
2022/10/22 09:16:32;;;;;;;21.92;19.65;;;;;;;13.78;49.99;95658.69;5087690;28;20239;-64
2022/10/22 09:19:04;;;;;;;23.33;19.52;;;;;;;13.89;49.45;95647.84;5086950;28;20202;-64
2022/10/22 09:21:38;;;;;;;22.60;19.67;;;;;;;14.03;49.06;95655.22;5084115;28;20241;-64
2022/10/22 09:24:10;;;;;;;19.77;17.88;;;;;;;14.07;48.97;95651.25;5101565;28;20236;-64
2022/10/22 09:26:38;;;;;;;20.48;18.33;;;;;;;13.99;49.10;95647.75;5078690;28;20272;-64
2022/10/22 09:29:04;;;;;;;21.33;19.10;;;;;;;14.03;48.93;95647.28;5088667;28;20199;-64
2022/10/22 09:31:31;;;;;;;19.77;17.58;;;;;;;14.02;48.96;95642.16;5090720;28;20208;-64
2022/10/22 09:33:58;;;;;;;20.05;17.88;;;;;;;14.16;48.43;95638.09;5077666;28;20192;-64
2022/10/22 09:36:27;;;;;;;21.23;18.95;;;;;;;14.41;48.36;95642.50;5084228;28;20209;-64
2022/10/22 09:38:53;;;;;;;25.17;18.48;;;;;;;14.54;48.21;95631.47;5085254;28;20211;-64
2022/10/22 09:41:24;;;;;;;19.65;17.58;;;;;;;14.68;47.53;95637.97;5085111;28;20176;-64
2022/10/22 09:43:50;;;;;;;21.00;17.77;;;;;;;14.91;47.36;95628.41;5081382;28;20196;-64
2022/10/22 09:46:20;;;;;;;19.38;17.52;;;;;;;15.01;46.39;95622.97;5086519;28;20279;-64
2022/10/22 09:48:57;;;;;;;20.67;18.48;;;;;;;15.11;45.77;95617.50;5085962;28;20188;-64
2022/10/22 09:51:46;;;;;;;20.80;18.15;;;;;;;15.00;46.57;95616.84;5085792;28;20200;-64
2022/10/22 09:54:37;;;;;;;19.50;17.45;;;;;;;15.19;45.78;95606.91;5083540;28;20193;-64
2022/10/22 09:57:05;;;;;;;19.80;17.77;;;;;;;15.47;45.68;95615.34;5088685;28;20196;-64
2022/10/22 09:59:35;;;;;;;20.70;17.33;;;;;;;15.68;44.82;95612.16;5075884;28;20184;-64
2022/10/22 10:02:17;;;;;;;19.13;17.25;;;;;;;15.79;44.85;95616.31;5097734;28;20273;-64
2022/10/22 10:04:49;;;;;;;19.45;16.98;;;;;;;15.93;44.00;95622.75;5087183;28;20228;-64
2022/10/22 10:07:23;;;;;;;20.00;17.35;;;;;;;15.92;44.45;95607.84;5082050;28;20259;-64
2022/10/22 10:09:50;;;;;;;17.63;15.93;;;;;;;15.72;44.35;95594.97;5087842;28;20207;-64
2022/10/22 10:12:34;;;;;;;18.17;16.35;;;;;;;15.90;44.49;95597.38;5081587;28;20201;-64
2022/10/22 10:15:18;;;;;;;17.48;15.15;;;;;;;15.81;44.05;95598.41;5079009;28;20279;-64
2022/10/22 10:17:43;;;;;;;23.17;15.98;;;;;;;15.84;44.80;95601.53;5096070;28;20184;-64
2022/10/22 10:20:17;;;;;;;18.33;16.17;;;;;;;15.77;44.93;95605.91;5084869;28;20199;-64
2022/10/22 10:22:53;;;;;;;18.17;14.75;;;;;;;16.07;44.16;95595.53;5086482;28;20262;-63
2022/10/22 10:25:34;;;;;;;20.85;15.57;;;;;;;16.28;43.32;95579.03;5080158;28;20192;-63
2022/10/22 10:28:36;;;;;;;19.85;14.85;;;;;;;16.59;42.67;95584.31;5078710;28;20191;-63
2022/10/22 10:31:42;;;;;;;18.80;15.93;;;;;;;16.45;43.09;95591.19;5009046;28;20403;-63
2022/10/22 10:34:26;;;;;;;18.77;14.88;;;;;;;16.52;42.87;95581.56;5009249;28;20187;-63
2022/10/22 10:37:12;;;;;;;15.90;13.90;;;;;;;16.81;42.22;95572.09;5005968;28;20234;-63
2022/10/22 10:40:06;;;;;;;19.45;14.50;;;;;;;17.06;41.69;95577.25;4988615;28;20199;-63
2022/10/22 10:43:05;;;;;;;16.38;14.77;;;;;;;17.04;41.46;95577.41;4993961;28;20266;-63
2022/10/22 10:45:48;;;;;;;18.17;15.05;;;;;;;17.10;41.52;95551.94;5009573;28;20210;-63
2022/10/22 10:48:17;;;;;;;16.88;14.45;;;;;;;17.29;41.44;95545.31;4994369;28;20285;-63
2022/10/22 10:51:15;;;;;;;17.67;14.95;;;;;;;17.36;40.75;95552.38;5012344;28;20207;-63
2022/10/22 10:54:08;;;;;;;17.88;14.82;;;;;;;17.60;40.15;95550.50;4994126;28;20197;-64
2022/10/22 10:56:37;;;;;;;16.42;14.63;;;;;;;17.61;39.82;95538.84;5009723;28;20179;-63
2022/10/22 10:59:36;;;;;;;17.30;13.70;;;;;;;17.51;40.49;95523.16;4995231;28;20681;-63
2022/10/22 11:02:17;;;;;;;19.08;14.02;;;;;;;17.76;40.09;95522.91;5008090;28;20191;-63
2022/10/22 11:04:45;;;;;;;16.60;14.65;;;;;;;18.10;39.63;95503.72;5030866;28;20196;-63
2022/10/22 11:07:21;;;;;;;17.92;14.85;;;;;;;18.26;38.82;95506.16;5083239;28;20182;-63
2022/10/22 11:10:03;;;;;;;17.40;14.05;;;;;;;18.20;38.86;95498.09;5081286;28;20191;-63
2022/10/22 11:12:43;;;;;;;16.90;14.00;;;;;;;18.46;38.92;95505.56;5088306;28;20204;-63
2022/10/22 11:15:21;;;;;;;15.40;13.60;;;;;;;18.66;38.40;95490.59;5096995;28;20275;-63
2022/10/22 11:17:47;;;;;;;18.40;12.88;;;;;;;18.67;37.96;95494.09;5085385;28;20180;-63
2022/10/22 11:20:27;;;;;;;15.48;13.93;;;;;;;18.77;38.23;95491.97;5085172;28;20291;-63
2022/10/22 11:23:08;;;;;;;15.40;13.57;;;;;;;18.95;37.87;95475.50;5089460;28;20180;-64
2022/10/22 11:25:42;;;;;;;16.27;13.13;;;;;;;19.15;37.20;95467.69;5090260;28;20217;-64
2022/10/22 11:28:40;;;;;;;25.38;13.73;;;;;;;19.53;36.63;95480.66;5090301;28;20217;-64
2022/10/22 11:31:14;;;;;;;16.70;13.75;;;;;;;19.54;36.28;95463.63;4996995;28;21011;-63
2022/10/22 11:34:06;;;;;;;16.88;12.90;;;;;;;19.94;36.01;95471.84;4997972;28;20230;-64
2022/10/22 11:36:33;;;;;;;14.50;12.35;;;;;;;21.70;32.54;95456.44;4994284;28;20681;-64
2022/10/22 11:39:02;;;;;;;12.60;11.30;;;;;;;30.14;20.99;95460.31;4997968;28;20187;-64